Time;durP1;ratioP1;P1;durP2;ratioP2;P2;SDS_P1;SDS_P2;PMS_P1;PMS_P2;Temp;Humidity;BMP_temperature;BMP_pressure;BME280_temperature;BME280_humidity;BME280_pressure;Samples;Min_cycle;Max_cycle;Signal;HPM_P1;HPM_P2
2021/12/02 00:02:15;;;;;;;2.78;2.00;;;6.70;99.90;;;8.19;100.00;98866.25;4864388;29;20052;-74
2021/12/02 00:04:43;;;;;;;3.40;1.98;;;6.80;99.90;;;8.36;100.00;98874.28;4912139;29;20080;-75
2021/12/02 00:07:11;;;;;;;3.00;1.77;;;8.50;99.90;;;8.19;100.00;98874.94;4895438;29;20059;-75
2021/12/02 00:09:38;;;;;;;5.00;2.00;;;7.10;99.90;;;8.26;100.00;98883.41;4895173;29;20604;-74
2021/12/02 00:12:07;;;;;;;3.92;2.05;;;6.70;99.90;;;8.21;100.00;98888.00;4895168;29;20048;-75
2021/12/02 00:14:45;;;;;;;2.40;1.63;;;6.90;99.90;;;8.55;100.00;98875.38;4886145;29;20048;-75
2021/12/02 00:17:17;;;;;;;4.07;2.22;;;6.80;99.90;;;8.19;100.00;98879.34;4862799;29;20068;-75
2021/12/02 00:22:31;;;;;;;4.72;1.92;;;6.80;99.90;;;8.21;100.00;98883.63;4878746;29;20071;-75
2021/12/02 00:25:03;;;;;;;3.28;2.10;;;6.90;99.90;;;8.32;100.00;98893.69;4876370;29;20052;-75
2021/12/02 00:27:31;;;;;;;4.00;2.25;;;6.80;99.90;;;8.15;100.00;98886.44;4893245;29;20421;-74
2021/12/02 00:29:59;;;;;;;3.10;2.00;;;6.70;99.90;;;8.11;100.00;98884.88;4860643;29;20043;-75
2021/12/02 00:32:30;;;;;;;5.47;2.05;;;6.80;99.90;;;8.13;100.00;98887.44;4860319;29;20052;-75
2021/12/02 00:34:58;;;;;;;12.73;2.75;;;6.60;99.90;;;8.54;100.00;98876.31;4893035;29;20524;-75
2021/12/02 00:37:27;;;;;;;2.72;1.80;;;8.60;99.90;;;8.13;100.00;98882.19;4860885;29;20056;-75
2021/12/02 00:39:55;;;;;;;3.25;2.03;;;6.60;99.90;;;8.48;100.00;98877.34;4861107;29;20044;-76
2021/12/02 00:42:22;;;;;;;6.60;2.45;;;6.60;99.90;;;7.91;100.00;98868.13;4860210;29;20506;-75
2021/12/02 00:44:50;;;;;;;3.47;2.45;;;6.60;99.90;;;7.95;100.00;98877.59;4876057;29;20059;-75
2021/12/02 00:47:18;;;;;;;4.38;1.92;;;6.60;99.90;;;7.67;100.00;98869.91;4875984;29;20063;-76
2021/12/02 00:49:47;;;;;;;3.58;1.95;;;6.50;99.90;;;7.86;100.00;98867.44;4875983;29;20048;-75
2021/12/02 00:52:14;;;;;;;3.20;2.00;;;6.50;99.90;;;7.89;100.00;98871.72;4875365;29;20059;-74
2021/12/02 00:54:42;;;;;;;2.90;2.08;;;6.50;99.90;;;7.87;100.00;98878.78;4876014;29;20055;-75
2021/12/02 00:57:12;;;;;;;2.83;2.10;;;6.50;99.90;;;7.98;100.00;98884.47;4875896;29;20445;-74
2021/12/02 00:59:40;;;;;;;5.63;1.80;;;6.50;99.90;;;7.76;100.00;98890.50;4875658;29;20079;-74
2021/12/02 01:02:09;;;;;;;2.80;2.00;;;7.90;99.90;;;8.01;100.00;98886.13;4875865;29;20052;-74
2021/12/02 01:04:36;;;;;;;5.07;1.98;;;6.70;99.90;;;7.87;100.00;98882.22;4880428;29;20044;-74
2021/12/02 01:07:04;;;;;;;4.75;2.00;;;7.80;99.90;;;7.88;100.00;98872.63;4849662;29;20057;-75
2021/12/02 01:09:31;;;;;;;2.67;2.15;;;7.30;99.90;;;7.92;100.00;98868.97;4863407;29;20414;-75
2021/12/02 01:11:59;;;;;;;5.68;1.95;;;6.40;99.90;;;7.97;100.00;98863.56;4878526;29;20053;-74
2021/12/02 01:14:26;;;;;;;3.88;1.75;;;6.40;99.90;;;7.78;100.00;98866.88;4863021;29;20554;-75
2021/12/02 01:16:53;;;;;;;2.72;1.67;;;6.30;99.90;;;7.49;100.00;98864.41;4863417;29;20049;-75
2021/12/02 01:19:21;;;;;;;3.88;1.80;;;6.40;99.90;;;7.56;100.00;98864.19;4863359;29;20437;-74
2021/12/02 01:21:48;;;;;;;5.88;2.53;;;6.40;99.90;;;7.62;100.00;98864.81;4863069;29;20045;-75
2021/12/02 01:24:18;;;;;;;4.45;2.13;;;6.30;99.90;;;7.66;100.00;98861.16;4862446;29;20060;-75
2021/12/02 01:26:52;;;;;;;3.92;2.13;;;6.20;99.90;;;7.71;100.00;98868.00;4879902;29;20049;-75
2021/12/02 01:29:24;;;;;;;9.10;3.75;;;6.40;99.90;;;7.72;100.00;98864.47;4863437;29;20061;-75
2021/12/02 01:31:57;;;;;;;4.07;2.33;;;6.30;99.90;;;7.61;100.00;98876.19;4863640;29;20056;-74
2021/12/02 01:34:27;;;;;;;7.93;2.17;;;7.20;99.90;;;7.79;100.00;98868.59;4863135;29;20053;-74
2021/12/02 01:36:55;;;;;;;2.30;1.90;;;7.30;99.90;;;7.72;100.00;98867.09;4863393;29;20060;-74
2021/12/02 01:39:24;;;;;;;4.05;2.20;;;6.30;99.90;;;7.68;100.00;98866.38;4863079;29;20045;-75
2021/12/02 01:41:57;;;;;;;7.28;2.17;;;6.30;99.90;;;7.62;100.00;98864.81;4863232;29;20903;-75
2021/12/02 01:44:28;;;;;;;5.47;2.20;;;6.90;99.90;;;7.73;100.00;98866.19;4863109;29;20447;-75
2021/12/02 01:46:58;;;;;;;;;;;6.20;99.90;;;7.94;100.00;98877.63;4863883;29;20127;-75
2021/12/02 01:49:34;;;;;;;5.38;2.20;;;6.20;99.90;;;7.87;100.00;98877.00;4863123;29;19924;-75
2021/12/02 01:52:03;;;;;;;6.55;2.67;;;6.20;99.90;;;7.80;100.00;98878.16;4878336;29;20065;-75
2021/12/02 01:54:30;;;;;;;4.90;2.80;;;6.30;99.90;;;7.59;100.00;98872.78;4847095;29;20132;-75
2021/12/02 01:57:07;;;;;;;4.55;2.22;;;6.30;99.90;;;7.71;100.00;98873.22;4863119;29;20426;-75
2021/12/02 01:59:38;;;;;;;3.42;2.40;;;6.20;99.90;;;7.59;100.00;98887.63;4863135;29;20819;-75
2021/12/02 02:02:10;;;;;;;3.10;2.25;;;7.50;99.90;;;7.76;100.00;98893.09;4863437;29;20410;-75
2021/12/02 02:04:39;;;;;;;4.10;2.05;;;6.30;99.90;;;7.73;100.00;98895.84;4862973;29;20048;-75
2021/12/02 02:07:17;;;;;;;4.90;2.17;;;6.30;99.90;;;7.96;100.00;98896.78;4863171;29;20050;-74
2021/12/02 02:09:44;;;;;;;2.58;1.90;;;7.20;99.90;;;7.81;100.00;98892.94;4885516;29;20052;-75
2021/12/02 02:12:13;;;;;;;5.03;2.45;;;6.70;99.90;;;8.08;100.00;98885.81;4900097;29;20051;-74
2021/12/02 02:14:42;;;;;;;5.32;2.55;;;6.20;99.90;;;7.67;100.00;98877.75;4898447;29;20684;-75
2021/12/02 02:17:18;;;;;;;8.70;2.50;;;6.20;99.90;;;7.54;100.00;98895.63;4882188;29;20066;-75
2021/12/02 02:19:46;;;;;;;2.05;1.85;;;6.20;99.90;;;7.56;100.00;98892.97;4898578;29;20043;-75
2021/12/02 02:22:19;;;;;;;4.43;1.88;;;6.20;99.90;;;7.85;100.00;98894.53;4897365;29;20417;-75
2021/12/02 02:24:46;;;;;;;4.43;2.58;;;7.90;99.90;;;7.59;100.00;98891.13;4882686;29;20054;-75
2021/12/02 02:27:14;;;;;;;4.13;2.05;;;6.20;99.90;;;7.51;100.00;98898.38;4881525;29;20749;-75
2021/12/02 02:29:41;;;;;;;4.30;2.35;;;6.20;99.90;;;7.62;100.00;98897.97;4881387;29;20056;-75
2021/12/02 02:32:08;;;;;;;3.88;2.35;;;6.10;99.90;;;7.52;100.00;98894.84;4881672;29;20115;-75
2021/12/02 02:34:35;;;;;;;3.72;2.30;;;6.50;99.90;;;7.51;100.00;98890.50;4913464;29;20550;-75
2021/12/02 02:37:05;;;;;;;4.13;2.13;;;6.70;99.90;;;7.61;100.00;98898.91;4881281;29;20052;-75
2021/12/02 02:39:34;;;;;;;4.15;2.08;;;6.10;99.90;;;7.76;100.00;98900.13;4913809;29;20048;-75
2021/12/02 02:42:05;;;;;;;3.60;2.00;;;8.00;99.90;;;7.76;100.00;98897.50;4897533;29;20079;-75
2021/12/02 02:44:33;;;;;;;2.58;2.05;;;6.10;99.90;;;7.77;100.00;98896.59;4913478;29;20056;-74
2021/12/02 02:47:00;;;;;;;4.30;2.17;;;6.10;99.90;;;7.50;100.00;98888.81;4881251;29;20051;-75
2021/12/02 02:49:27;;;;;;;5.78;2.10;;;6.00;99.90;;;7.53;100.00;98886.06;4880991;29;20409;-75
2021/12/02 02:51:54;;;;;;;6.57;2.20;;;6.00;99.90;;;7.57;100.00;98890.31;4881524;29;20048;-75
2021/12/02 02:54:23;;;;;;;3.95;2.20;;;6.10;99.90;;;7.60;100.00;98891.94;4912890;29;20059;-75
2021/12/02 02:57:07;;;;;;;4.40;2.25;;;6.10;99.90;;;7.36;100.00;98892.75;4884842;29;20052;-75
2021/12/02 03:08:35;;;;;;;9.02;2.63;;;6.10;99.90;;;7.44;100.00;98881.19;4879218;29;20049;-75
2021/12/02 03:13:17;;;;;;;4.25;2.17;;;6.00;99.90;;;7.37;100.00;98873.53;4876963;29;20079;-74
2021/12/02 03:18:31;;;;;;;6.25;2.50;;;6.90;99.90;;;7.41;100.00;98868.19;4880181;29;20135;-75
2021/12/02 03:20:58;;;;;;;8.00;3.95;;;5.90;99.90;;;7.51;100.00;98874.81;4877816;29;20059;-75
2021/12/02 03:23:26;;;;;;;5.00;2.33;;;6.50;99.90;;;7.56;100.00;98870.25;4876888;29;20080;-75
2021/12/02 03:25:53;;;;;;;3.40;2.28;;;6.80;99.90;;;7.43;100.00;98869.84;4861935;29;20048;-75
2021/12/02 03:28:20;;;;;;;4.97;2.15;;;5.90;99.90;;;7.58;100.00;98873.69;4877136;29;20051;-75
2021/12/02 03:30:47;;;;;;;7.38;1.92;;;5.90;99.90;;;7.48;100.00;98877.53;4877660;29;20406;-74
2021/12/02 03:33:14;;;;;;;6.53;2.30;;;6.00;99.90;;;7.51;100.00;98878.28;4893523;29;20048;-75
2021/12/02 03:35:43;;;;;;;6.28;2.33;;;5.90;99.90;;;7.48;100.00;98881.00;4893947;29;20041;-75
2021/12/02 03:38:28;;;;;;;6.28;2.70;;;6.20;99.90;;;7.68;100.00;98876.84;4879287;29;20120;-75
2021/12/02 03:40:55;;;;;;;4.53;2.15;;;5.90;99.90;;;7.69;100.00;98878.53;4892773;29;20823;-75
2021/12/02 03:43:22;;;;;;;6.35;2.25;;;5.90;99.90;;;7.64;100.00;98886.56;4845357;29;20057;-74
2021/12/02 03:45:50;;;;;;;3.63;2.42;;;5.90;99.90;;;7.59;100.00;98874.53;4877215;29;20057;-75
2021/12/02 03:48:17;;;;;;;3.10;1.83;;;6.00;99.90;;;7.53;100.00;98873.00;4893505;29;20059;-75
2021/12/02 03:50:44;;;;;;;4.45;2.10;;;6.70;99.90;;;7.49;100.00;98871.41;4892237;29;20052;-75
2021/12/02 03:53:11;;;;;;;4.80;1.85;;;5.90;99.90;;;7.52;100.00;98866.03;4893259;29;20061;-74
2021/12/02 03:55:38;;;;;;;5.28;2.45;;;5.90;99.90;;;7.59;100.00;98870.16;4878244;29;20052;-75
2021/12/02 03:58:08;;;;;;;4.85;2.55;;;5.90;99.90;;;7.89;100.00;98858.63;4876569;29;20049;-75
2021/12/02 04:00:35;;;;;;;6.07;2.67;;;5.90;99.90;;;7.34;100.00;98863.19;4876584;29;20502;-75
2021/12/02 04:03:02;;;;;;;6.13;2.08;;;6.30;99.90;;;7.51;100.00;98867.81;4892954;29;20131;-75
2021/12/02 04:05:29;;;;;;;6.38;2.78;;;6.60;99.90;;;7.55;100.00;98868.56;4893353;29;20139;-75
2021/12/02 04:07:56;;;;;;;7.07;2.78;;;7.00;99.90;;;7.62;100.00;98859.59;4867517;29;20048;-75
2021/12/02 04:10:24;;;;;;;4.35;2.20;;;5.90;99.90;;;7.68;100.00;98863.75;4876357;29;20060;-74
2021/12/02 04:15:34;;;;;;;9.30;3.50;;;6.60;99.90;;;7.82;100.00;98870.25;4893285;29;20044;-75
2021/12/02 04:18:04;;;;;;;4.97;2.15;;;6.10;99.90;;;7.75;100.00;98872.22;4892948;29;20138;-74
2021/12/02 04:20:31;;;;;;;8.95;3.60;;;6.10;99.90;;;7.72;100.00;98856.63;4899566;29;20052;-75
2021/12/02 04:22:59;;;;;;;4.43;2.25;;;6.10;99.90;;;7.83;100.00;98867.56;4878566;29;20505;-75
2021/12/02 04:25:26;;;;;;;3.95;2.45;;;6.60;99.90;;;7.81;100.00;98877.22;4894577;29;20066;-75
2021/12/02 04:27:54;;;;;;;3.90;2.33;;;6.00;99.90;;;7.72;100.00;98874.94;4886052;29;20049;-74
2021/12/02 04:30:25;;;;;;;8.93;2.70;;;6.10;99.90;;;7.64;100.00;98873.47;4860848;29;20067;-74
2021/12/02 04:32:54;;;;;;;8.32;3.35;;;7.00;99.90;;;7.46;100.00;98864.50;4860419;29;20067;-75
2021/12/02 04:35:21;;;;;;;8.98;3.30;;;6.10;99.90;;;7.61;100.00;98865.72;4860869;29;20055;-75
2021/12/02 04:37:51;;;;;;;6.38;2.42;;;6.10;99.90;;;7.49;100.00;98872.28;4859742;29;20087;-75
2021/12/02 04:40:21;;;;;;;3.10;1.90;;;6.10;99.90;;;7.61;100.00;98872.72;4861127;29;20055;-74
2021/12/02 04:42:49;;;;;;;2.75;2.20;;;6.00;99.90;;;7.72;100.00;98860.09;4859691;29;20611;-75
2021/12/02 04:45:16;;;;;;;2.55;1.90;;;6.70;99.90;;;7.52;100.00;98873.91;4860785;29;20052;-75
2021/12/02 04:47:43;;;;;;;9.48;2.13;;;6.00;99.90;;;7.57;100.00;98863.28;4860487;29;20131;-74
2021/12/02 04:50:29;;;;;;;4.05;2.20;;;6.10;99.90;;;7.62;100.00;98867.44;4865867;29;20486;-75
2021/12/02 04:52:56;;;;;;;5.68;3.03;;;6.00;99.90;;;7.59;100.00;98859.69;4885079;29;20052;-75
2021/12/02 04:55:26;;;;;;;3.55;2.10;;;6.00;99.90;;;7.64;100.00;98860.38;4867805;29;20077;-75
2021/12/02 04:57:54;;;;;;;5.88;2.47;;;6.00;99.90;;;7.48;100.00;98860.06;4892259;29;20524;-75
2021/12/02 05:00:21;;;;;;;3.95;2.00;;;6.20;99.90;;;7.47;100.00;98865.38;4875056;29;20045;-75
2021/12/02 05:02:48;;;;;;;6.18;2.30;;;6.00;99.90;;;7.44;100.00;98865.47;4875387;29;20131;-74
2021/12/02 05:05:22;;;;;;;4.60;2.10;;;6.20;99.90;;;7.50;100.00;98862.63;4876214;29;20052;-74
2021/12/02 05:07:57;;;;;;;8.75;2.60;;;6.00;99.90;;;7.62;100.00;98856.97;4892660;29;20045;-75
2021/12/02 05:10:24;;;;;;;6.68;2.63;;;5.90;99.90;;;7.39;100.00;98849.94;4861128;29;20045;-74
2021/12/02 05:12:53;;;;;;;6.35;3.15;;;6.00;99.90;;;7.60;100.00;98855.31;4860396;29;20056;-74
2021/12/02 05:15:21;;;;;;;6.63;2.22;;;5.90;99.90;;;7.35;100.00;98867.50;4860831;29;20080;-74
2021/12/02 05:17:48;;;;;;;4.07;2.35;;;6.70;99.90;;;7.45;100.00;98857.56;4876235;29;20057;-76
2021/12/02 05:20:15;;;;;;;5.20;2.72;;;5.90;99.90;;;7.53;100.00;98862.53;4876263;29;20063;-75
2021/12/02 05:22:42;;;;;;;3.97;2.40;;;5.90;99.90;;;7.56;100.00;98867.63;4875897;29;20422;-74
2021/12/02 05:25:12;;;;;;;4.30;2.15;;;6.00;99.90;;;7.57;100.00;98871.13;4883114;29;20052;-74
2021/12/02 05:27:39;;;;;;;;;;;6.00;99.90;;;7.69;100.00;98865.44;4875675;29;20521;-74
2021/12/02 05:30:08;;;;;;;4.22;2.08;;;5.90;99.90;;;7.56;100.00;98865.03;4892092;29;19927;-74
2021/12/02 05:32:36;;;;;;;6.72;2.50;;;5.90;99.90;;;7.53;100.00;98862.53;4875220;29;20049;-75
2021/12/02 05:35:04;;;;;;;5.88;3.10;;;5.90;99.90;;;7.91;100.00;98862.91;4873430;29;20056;-74
2021/12/02 05:37:31;;;;;;;7.10;3.40;;;6.00;99.90;;;7.64;100.00;98859.50;4891566;29;20155;-76
2021/12/02 05:39:58;;;;;;;6.43;2.80;;;6.00;99.90;;;7.59;100.00;98854.47;4876215;29;20104;-75
2021/12/02 05:42:25;;;;;;;13.98;3.95;;;6.00;99.90;;;7.56;100.00;98851.09;4884756;29;20119;-76
2021/12/02 05:44:53;;;;;;;9.68;3.22;;;6.10;99.90;;;7.62;100.00;98845.63;4875681;29;20513;-75
2021/12/02 05:47:21;;;;;;;6.53;2.75;;;6.60;99.90;;;7.63;100.00;98839.47;4875209;29;20107;-75
2021/12/02 05:49:48;;;;;;;5.50;2.20;;;7.10;99.90;;;7.64;100.00;98838.56;4876392;29;20063;-75
2021/12/02 05:52:19;;;;;;;7.43;3.10;;;6.00;99.90;;;7.71;100.00;98833.97;4860371;29;20056;-75
2021/12/02 05:54:46;;;;;;;7.95;3.08;;;6.10;99.90;;;7.72;100.00;98827.81;4867769;29;20052;-75
2021/12/02 05:57:15;;;;;;;4.22;2.30;;;6.00;99.90;;;7.72;100.00;98831.31;4869982;29;20053;-75
2021/12/02 05:59:42;;;;;;;6.93;2.50;;;6.10;99.90;;;7.68;100.00;98842.81;4871101;29;20123;-78
2021/12/02 06:02:09;;;;;;;5.43;3.17;;;6.00;99.90;;;7.70;100.00;98845.34;4876999;29;20060;-76
2021/12/02 06:04:39;;;;;;;5.60;2.78;;;6.10;99.90;;;7.72;100.00;98840.91;4859721;29;20057;-75
2021/12/02 06:07:06;;;;;;;5.03;2.63;;;7.50;99.90;;;7.91;100.00;98852.44;4859928;29;20057;-77
2021/12/02 06:09:34;;;;;;;6.93;2.63;;;6.10;99.90;;;7.53;100.00;98844.19;4858817;29;20041;-75
2021/12/02 06:12:01;;;;;;;3.72;2.35;;;6.10;99.90;;;7.57;100.00;98843.19;4895670;29;20040;-75
2021/12/02 06:14:28;;;;;;;4.82;2.33;;;6.60;99.90;;;7.60;100.00;98829.13;4896309;29;20044;-75
2021/12/02 06:16:55;;;;;;;4.57;2.35;;;6.20;99.90;;;7.73;100.00;98840.03;4896246;29;20135;-75
2021/12/02 06:19:22;;;;;;;6.75;2.35;;;6.10;99.90;;;7.73;100.00;98837.41;4881656;29;20123;-77
2021/12/02 06:21:50;;;;;;;8.07;3.17;;;7.70;99.90;;;7.66;100.00;98836.78;4898033;29;20476;-78
2021/12/02 06:24:19;;;;;;;6.07;3.03;;;6.10;99.90;;;7.94;100.00;98846.19;4854366;29;20135;-78
2021/12/02 06:26:46;;;;;;;9.82;3.42;;;6.80;99.90;;;7.77;100.00;98831.97;4847015;29;20049;-78
2021/12/02 06:29:13;;;;;;;7.40;3.67;;;7.90;99.90;;;7.71;100.00;98847.91;4864114;29;20061;-78
2021/12/02 06:31:41;;;;;;;4.35;2.58;;;6.10;99.90;;;7.69;100.00;98838.41;4863478;29;20080;-78
2021/12/02 06:34:08;;;;;;;5.13;3.20;;;7.00;99.90;;;7.72;100.00;98846.13;4863845;29;20112;-77
2021/12/02 06:36:37;;;;;;;6.95;2.55;;;6.20;99.90;;;7.60;100.00;98839.59;4853023;29;20069;-77
2021/12/02 06:39:06;;;;;;;4.72;2.40;;;8.00;99.90;;;7.64;100.00;98851.66;4869991;29;20049;-75
2021/12/02 06:41:33;;;;;;;9.15;2.80;;;8.00;99.90;;;7.64;100.00;98863.00;4850855;29;20041;-77
2021/12/02 06:44:00;;;;;;;6.00;2.50;;;7.90;99.90;;;7.57;100.00;98848.44;4863217;29;20065;-78
2021/12/02 06:46:29;;;;;;;4.75;2.58;;;6.10;99.90;;;7.53;100.00;98849.44;4863860;29;20083;-78
2021/12/02 06:48:56;;;;;;;3.58;2.22;;;7.80;99.90;;;7.57;100.00;98850.19;4865172;29;20105;-78
2021/12/02 06:51:24;;;;;;;4.88;2.15;;;6.20;99.90;;;7.56;100.00;98851.94;4864271;29;20048;-78
2021/12/02 06:53:52;;;;;;;6.68;2.70;;;6.20;99.90;;;7.37;100.00;98846.53;4863236;29;20900;-78
2021/12/02 06:56:39;;;;;;;4.20;2.75;;;6.10;99.90;;;7.51;100.00;98859.97;4866672;29;20041;-77
2021/12/02 06:59:06;;;;;;;7.90;3.08;;;6.10;99.90;;;7.47;100.00;98866.19;4848076;29;20147;-77
2021/12/02 07:01:34;;;;;;;6.78;3.17;;;6.10;99.90;;;7.59;100.00;98864.94;4862438;29;20049;-78
2021/12/02 07:04:02;;;;;;;16.50;6.78;;;7.90;99.90;;;7.61;100.00;98867.47;4894586;29;20052;-78
2021/12/02 07:06:29;;;;;;;8.80;3.50;;;6.00;99.90;;;7.69;100.00;98864.59;4865889;29;20083;-77
2021/12/02 07:08:56;;;;;;;13.90;5.75;;;6.00;99.90;;;7.69;100.00;98867.19;4865224;29;20072;-77
2021/12/02 07:11:23;;;;;;;6.32;2.90;;;6.90;99.90;;;7.62;100.00;98877.91;4865865;29;20414;-78
2021/12/02 07:13:54;;;;;;;5.72;2.80;;;6.00;99.90;;;7.61;100.00;98878.81;4880798;29;20044;-78
2021/12/02 07:16:27;;;;;;;12.88;4.95;;;5.90;99.90;;;7.76;100.00;98868.72;4867271;29;20069;-78
2021/12/02 07:18:57;;;;;;;5.18;2.90;;;6.80;99.90;;;7.94;100.00;98861.91;4866341;29;20052;-78
2021/12/02 07:21:25;;;;;;;9.10;3.55;;;6.00;99.90;;;7.54;100.00;98879.09;4866609;29;20087;-79
2021/12/02 07:23:52;;;;;;;6.45;3.80;;;6.00;99.90;;;7.95;100.00;98869.72;4896799;29;20056;-79
2021/12/02 07:26:19;;;;;;;8.80;3.45;;;6.70;99.90;;;7.93;100.00;98868.06;4867822;29;20269;-78
2021/12/02 07:28:47;;;;;;;7.75;3.47;;;6.00;99.90;;;7.51;100.00;98878.28;4880692;29;20063;-78
2021/12/02 07:31:15;;;;;;;7.75;3.10;;;6.70;99.90;;;7.43;100.00;98884.72;4883941;29;20068;-79
2021/12/02 07:33:47;;;;;;;7.70;3.17;;;6.10;99.90;;;7.45;100.00;98891.56;4864687;29;20060;-80
2021/12/02 07:36:17;;;;;;;17.63;4.45;;;5.00;99.90;;;7.65;100.00;98882.19;4865877;29;20418;-79
2021/12/02 07:38:46;;;;;;;8.20;5.23;;;6.10;99.90;;;7.65;100.00;98900.50;4880651;29;20053;-79
2021/12/02 07:41:14;;;;;;;6.63;4.57;;;8.70;99.90;;;7.61;100.00;98897.16;4867033;29;20151;-79
2021/12/02 07:43:41;;;;;;;6.80;3.92;;;6.00;99.90;;;7.73;100.00;98895.84;4863904;29;20048;-79
2021/12/02 07:46:09;;;;;;;8.60;4.65;;;6.10;99.90;;;7.60;100.00;98899.81;4880738;29;20048;-78
2021/12/02 07:48:37;;;;;;;7.43;3.92;;;6.10;99.90;;;7.59;100.00;98903.34;4882508;29;20044;-78
2021/12/02 07:51:15;;;;;;;6.85;3.80;;;7.00;99.90;;;7.77;100.00;98904.44;4883983;29;20088;-78
2021/12/02 07:53:46;;;;;;;11.93;6.13;;;6.10;99.90;;;7.88;100.00;98911.91;4866929;29;20056;-78
2021/12/02 07:56:16;;;;;;;10.23;6.65;;;6.10;99.90;;;7.90;100.00;98916.19;4867776;29;20514;-79
2021/12/02 07:58:47;;;;;;;15.85;5.22;;;8.10;99.90;;;7.87;100.00;98918.06;4883086;29;20049;-77
2021/12/02 08:01:15;;;;;;;9.45;3.67;;;6.10;99.90;;;8.00;100.00;98924.56;4868026;29;20494;-79
2021/12/02 08:03:44;;;;;;;4.60;3.40;;;7.50;99.90;;;7.88;100.00;98919.78;4861749;29;20057;-79
2021/12/02 08:06:16;;;;;;;9.20;4.03;;;6.20;99.90;;;7.77;100.00;98921.00;4874393;29;20057;-78
2021/12/02 08:08:47;;;;;;;8.48;5.03;;;6.20;99.90;;;7.80;100.00;98922.66;4894814;29;20040;-79
2021/12/02 08:11:14;;;;;;;4.15;3.58;;;7.00;99.90;;;7.73;100.00;98932.50;4902450;29;20052;-78
2021/12/02 08:13:41;;;;;;;7.13;3.80;;;6.20;99.90;;;7.78;100.00;98935.78;4900283;29;20603;-78
2021/12/02 08:16:08;;;;;;;4.72;3.90;;;6.20;99.90;;;7.72;100.00;98929.91;4900924;29;20581;-77
2021/12/02 08:18:37;;;;;;;6.15;4.15;;;6.20;99.90;;;7.65;100.00;98934.53;4885841;29;20076;-78
2021/12/02 08:21:04;;;;;;;4.18;3.40;;;7.60;99.90;;;7.55;100.00;98941.84;4886520;29;20051;-79
2021/12/02 08:23:31;;;;;;;5.38;3.63;;;6.20;99.90;;;7.85;100.00;98936.44;4901602;29;20092;-78
2021/12/02 08:25:58;;;;;;;7.30;4.43;;;6.20;99.90;;;7.76;100.00;98939.41;4902659;29;20048;-77
2021/12/02 08:28:25;;;;;;;6.15;2.90;;;6.20;99.90;;;7.36;100.00;98939.00;4871928;29;20142;-79
2021/12/02 08:30:53;;;;;;;5.22;3.45;;;6.20;99.90;;;7.07;100.00;98948.69;4865343;29;20136;-77
2021/12/02 08:33:20;;;;;;;6.30;4.25;;;6.20;99.90;;;6.59;100.00;98950.16;4874927;29;20056;-77
2021/12/02 08:35:48;;;;;;;6.15;4.38;;;7.80;99.90;;;6.84;100.00;98952.03;4860037;29;20282;-78
2021/12/02 08:38:18;;;;;;;8.40;5.93;;;6.10;99.90;;;6.51;100.00;98963.44;4887752;29;20115;-78
2021/12/02 08:40:49;;;;;;;5.22;4.20;;;7.50;99.90;;;6.34;100.00;98961.34;4877674;29;20577;-77
2021/12/02 08:43:17;;;;;;;5.03;4.18;;;6.10;99.90;;;6.43;100.00;98968.06;4861479;29;20072;-78
2021/12/02 08:45:45;;;;;;;7.47;4.90;;;6.10;99.90;;;6.49;100.00;98966.13;4877477;29;20059;-77
2021/12/02 08:48:13;;;;;;;6.18;3.78;;;6.10;99.90;;;6.98;100.00;98969.88;4876739;29;20562;-76
2021/12/02 08:50:40;;;;;;;5.95;4.88;;;6.10;99.90;;;6.63;100.00;98980.50;4891916;29;20075;-77
2021/12/02 08:53:09;;;;;;;7.05;5.35;;;6.10;99.90;;;6.48;100.00;98987.06;4876428;29;20040;-76
2021/12/02 08:55:37;;;;;;;6.13;4.65;;;6.00;99.90;;;6.67;100.00;98990.84;4876106;29;20048;-77
2021/12/02 08:58:07;;;;;;;7.00;6.05;;;6.00;99.90;;;6.57;100.00;98997.25;4877246;29;20045;-78
2021/12/02 09:00:39;;;;;;;7.47;5.80;;;6.40;99.90;;;6.67;100.00;98998.69;4873918;29;20569;-76
2021/12/02 09:03:15;;;;;;;7.60;4.53;;;6.00;99.90;;;6.41;100.00;98999.44;4863406;29;20057;-77
2021/12/02 09:05:43;;;;;;;8.25;6.05;;;6.00;99.90;;;6.50;100.00;98996.59;4844757;29;20522;-78
2021/12/02 09:08:10;;;;;;;6.35;5.32;;;6.10;99.90;;;6.64;100.00;99000.56;4860240;29;20425;-78
2021/12/02 09:10:38;;;;;;;4.50;3.42;;;6.30;99.90;;;6.81;100.00;99003.50;4844306;29;20053;-77
2021/12/02 09:13:09;;;;;;;3.22;2.65;;;6.60;99.90;;;6.74;100.00;99004.59;4859119;29;20044;-76
2021/12/02 09:15:39;;;;;;;5.95;4.43;;;7.40;99.90;;;7.02;100.00;99006.34;4876343;29;20153;-76
2021/12/02 09:18:06;;;;;;;5.30;3.08;;;6.10;99.90;;;6.94;100.00;99005.72;4874319;29;20049;-76
2021/12/02 09:20:34;;;;;;;4.55;2.47;;;6.10;99.90;;;6.90;100.00;99017.19;4874735;29;20053;-77
2021/12/02 09:23:01;;;;;;;2.97;2.47;;;6.20;99.90;;;6.89;100.00;99020.72;4859860;29;20071;-77
2021/12/02 09:25:29;;;;;;;4.18;3.15;;;7.90;99.90;;;6.99;100.00;99022.16;4878401;29;20750;-76
2021/12/02 09:27:56;;;;;;;4.78;3.47;;;7.80;99.90;;;6.94;100.00;99029.25;4877968;29;20040;-76
2021/12/02 09:30:25;;;;;;;4.93;4.53;;;6.20;99.90;;;6.88;100.00;99032.06;4863042;29;20410;-77
2021/12/02 09:32:53;;;;;;;5.50;4.15;;;7.90;99.90;;;6.90;100.00;99032.88;4877573;29;20072;-77
2021/12/02 09:35:23;;;;;;;4.80;3.40;;;6.30;99.90;;;7.19;100.00;99036.34;4862506;29;20507;-77
2021/12/02 09:37:51;;;;;;;4.65;3.13;;;6.10;99.90;;;6.95;100.00;99042.31;4860494;29;20132;-78
2021/12/02 09:40:21;;;;;;;7.72;3.55;;;6.60;99.90;;;7.07;100.00;99037.59;4877429;29;20437;-77
2021/12/02 09:42:48;;;;;;;4.53;2.33;;;6.60;99.90;;;6.83;100.00;99042.66;4862303;29;20510;-77
2021/12/02 09:45:16;;;;;;;3.67;2.60;;;6.30;99.90;;;7.05;100.00;99040.25;4877679;29;20515;-77
2021/12/02 09:47:47;;;;;;;3.97;2.78;;;6.30;99.90;;;7.15;100.00;99038.19;4878738;29;20049;-75
2021/12/02 09:50:22;;;;;;;3.47;1.75;;;6.20;99.90;;;6.74;100.00;99033.34;4862087;29;20558;-77
2021/12/02 09:52:50;;;;;;;5.53;3.17;;;6.50;99.90;;;6.70;100.00;99044.78;4861420;29;20073;-76
2021/12/02 09:57:52;;;;;;;4.35;2.75;;;6.30;99.90;;;6.98;100.00;99040.50;4861293;29;20051;-77
2021/12/02 10:00:35;;;;;;;5.57;3.83;;;6.30;99.90;;;7.12;100.00;99043.53;4876301;29;20468;-76
2021/12/02 10:03:15;;;;;;;4.55;2.72;;;6.30;99.90;;;7.18;100.00;99034.66;4877716;29;20049;-77
2021/12/02 10:05:55;;;;;;;4.85;2.80;;;6.30;99.90;;;7.30;100.00;99030.78;4878928;29;20092;-77
2021/12/02 10:08:34;;;;;;;5.20;3.35;;;8.00;99.90;;;7.57;100.00;99028.19;4878190;29;20079;-77
2021/12/02 10:11:05;;;;;;;6.03;3.22;;;6.30;99.90;;;7.37;100.00;99027.91;4880422;29;20080;-76
2021/12/02 10:14:20;;;;;;;6.60;3.42;;;6.40;99.90;;;7.50;100.00;99024.91;4881702;29;20515;-78
2021/12/02 10:16:31;;;;;;;4.97;2.92;;;6.40;99.90;;;7.42;100.00;99025.16;4882214;29;20145;-77
2021/12/02 10:21:54;;;;;;;6.63;6.13;;;6.50;99.90;;;7.29;100.00;99024.72;4896738;29;20052;-78
2021/12/02 10:24:26;;;;;;;4.55;4.15;;;6.50;99.90;;;7.39;100.00;99025.25;4885081;29;20072;-77
2021/12/02 10:26:58;;;;;;;3.97;3.63;;;6.90;99.90;;;7.61;100.00;99025.41;4884698;29;20068;-77
2021/12/02 10:29:50;;;;;;;5.35;4.28;;;8.60;99.90;;;7.51;100.00;99024.00;4878095;29;20059;-78
2021/12/02 10:32:28;;;;;;;2.95;2.50;;;8.20;99.90;;;7.46;100.00;99023.31;4845634;29;20063;-76
2021/12/02 10:35:03;;;;;;;8.65;4.65;;;6.60;99.90;;;7.49;100.00;99021.44;4862416;29;20101;-77
2021/12/02 10:37:39;;;;;;;10.63;5.63;;;6.60;99.90;;;7.63;100.00;99035.81;4846101;29;20108;-77
2021/12/02 10:40:09;;;;;;;9.23;6.15;;;7.10;99.90;;;7.22;100.00;99031.88;4849362;29;20060;-77
2021/12/02 10:42:43;;;;;;;4.03;3.10;;;6.60;99.90;;;7.19;100.00;99036.34;4848216;29;20450;-76
2021/12/02 10:45:30;;;;;;;3.05;2.20;;;6.70;99.90;;;7.38;100.00;99021.78;4864505;29;20053;-76
2021/12/02 10:47:58;;;;;;;3.38;1.98;;;7.60;99.90;;;7.24;100.00;99022.22;4862238;29;20053;-76
2021/12/02 10:50:27;;;;;;;2.97;1.95;;;6.60;99.90;;;7.03;100.00;99015.91;4845307;29;20052;-78
2021/12/02 10:53:03;;;;;;;4.47;1.90;;;7.20;99.90;;;7.05;100.00;99010.66;4844671;29;20135;-76
2021/12/02 10:55:32;;;;;;;2.88;1.98;;;6.60;99.90;;;7.12;100.00;99011.31;4860181;29;20383;-77
2021/12/02 10:58:01;;;;;;;6.75;3.83;;;7.80;99.90;;;7.25;100.00;99012.59;4845099;29;20654;-76
2021/12/02 11:00:40;;;;;;;7.10;3.77;;;6.60;99.90;;;7.39;100.00;99012.19;4862023;29;20045;-77